Terminal Aerodrome Forecast
Issued by NWS

Home | Current Version | Previous Version | Text Only | Print | Product List | Glossary Off
Versions: 1 2 3 4 5 6 7 8 9 10 11 12 13 14 15 16

000
FTUS43 KICT 241140
TAFSLN
TAF
KSLN 241140Z 2412/2512 14007KT P6SM BKN200
     FM241400 18012G22KT P6SM FEW050 SCT200
     FM250400 17010KT P6SM VCTS BKN070CB
     FM250600 19009KT P6SM BKN250=

USA.gov is the U.S. government's official web portal to all federal, state and local government web resources and services.